Time;durP1;ratioP1;P1;durP2;ratioP2;P2;SDS_P1;SDS_P2;PMS_P1;PMS_P2;Temp;Humidity;BMP_temperature;BMP_pressure;BME280_temperature;BME280_humidity;BME280_pressure;Samples;Min_cycle;Max_cycle;Signal;HPM_P1;HPM_P2
2023/06/25 00:02:59;;;;;;;;;7.67;6.00;;;;;24.56;44.85;101533.22;4883006;29;44617;-96
2023/06/25 00:05:25;;;;;;;;;5.67;5.00;;;;;24.72;45.22;101556.75;4878527;29;44802;-96
2023/06/25 00:07:52;;;;;;;;;5.33;5.33;;;;;24.49;45.11;101518.75;4854022;29;45058;-96
2023/06/25 00:10:18;;;;;;;;;7.33;7.33;;;;;24.44;45.60;101531.59;4843069;29;45157;-96
2023/06/25 00:12:44;;;;;;;;;5.67;5.00;;;;;24.41;45.36;101543.34;4851154;29;44890;-96
2023/06/25 00:15:11;;;;;;;;;5.00;5.00;;;;;24.45;45.42;101538.59;4843415;29;44782;-96
2023/06/25 00:17:37;;;;;;;;;7.33;6.67;;;;;24.35;45.43;101535.88;4859244;29;44866;-96
2023/06/25 00:20:03;;;;;;;;;5.00;5.00;;;;;24.49;45.96;101559.50;4841242;29;45136;-96
2023/06/25 00:22:30;;;;;;;;;5.00;5.00;;;;;24.25;45.85;101525.97;4868333;29;44721;-96
2023/06/25 00:24:56;;;;;;;;;6.00;6.00;;;;;24.19;46.05;101530.94;4843919;29;44950;-96
2023/06/25 00:27:22;;;;;;;;;7.33;6.33;;;;;24.14;46.08;101524.22;4844070;29;44933;-95
2023/06/25 00:29:48;;;;;;;;;6.00;6.00;;;;;24.28;45.93;101546.16;4834883;29;45518;-95
2023/06/25 00:32:17;;;;;;;;;9.00;8.00;;;;;24.07;45.85;101517.66;4842194;29;45459;-91
2023/06/25 00:34:43;;;;;;;;;5.00;5.00;;;;;23.98;46.24;101507.81;4846499;29;44779;-96
2023/06/25 00:37:16;;;;;;;;;6.33;6.00;;;;;24.11;46.42;101540.41;4880731;29;44908;-96
2023/06/25 00:39:46;;;;;;;;;6.00;6.00;;;;;23.89;46.23;101512.03;4894828;29;45271;-96
2023/06/25 00:42:13;;;;;;;;;7.33;7.00;;;;;23.81;46.76;101512.66;4880878;29;44860;-96
2023/06/25 00:44:40;;;;;;;;;7.00;6.33;;;;;23.96;46.79;101544.28;4882177;29;44810;-96
2023/06/25 00:47:12;;;;;;;;;7.67;7.00;;;;;23.90;46.68;101535.00;4880751;29;45022;-96
2023/06/25 00:49:48;;;;;;;;;7.33;7.33;;;;;23.73;46.94;101515.06;4882460;29;46746;-96
2023/06/25 00:52:15;;;;;;;;;5.67;5.67;;;;;23.61;47.02;101499.16;4884298;29;44910;-96
2023/06/25 00:54:42;;;;;;;;;6.33;6.33;;;;;23.76;47.21;101528.97;4894690;29;44881;-96
2023/06/25 00:57:09;;;;;;;;;8.00;8.00;;;;;23.73;46.93;101521.25;4896941;29;44808;-96
2023/06/25 00:59:37;;;;;;;;;6.67;6.67;;;;;23.50;47.42;101496.50;4879668;29;45597;-96
2023/06/25 01:07:18;;;;;;;;;7.33;7.33;;;;;23.58;47.34;101523.31;5215504;23;45793;-96
2023/06/25 01:09:47;;;;;;;;;8.00;8.00;;;;;23.51;48.33;101505.34;4859680;29;45795;-96
2023/06/25 01:12:13;;;;;;;;;7.67;7.33;;;;;23.52;47.93;101505.22;4867723;29;44809;-95
2023/06/25 01:14:40;;;;;;;;;6.67;6.67;;;;;23.36;47.79;101481.66;4861210;29;44876;-96
2023/06/25 01:17:07;;;;;;;;;7.00;6.67;;;;;23.40;47.78;101488.44;4864733;29;44993;-95
2023/06/25 01:19:33;;;;;;;;;10.00;9.00;;;;;23.32;48.25;101485.53;4868902;29;46109;-95
2023/06/25 01:22:52;;;;;;;;;7.67;7.67;;;;;23.31;48.26;101487.34;4855859;29;44708;-96
2023/06/25 01:25:18;;;;;;;;;8.00;7.00;;;;;23.16;48.46;101460.16;4857545;29;44790;-95
2023/06/25 01:27:50;;;;;;;;;9.50;7.75;;;;;23.20;48.41;101485.50;4849962;29;44826;-96
2023/06/25 01:30:17;;;;;;;;;9.67;9.67;;;;;23.16;48.90;101485.84;4864457;29;45677;-96
2023/06/25 01:33:06;;;;;;;;;11.00;9.33;;;;;23.12;48.58;101487.06;4849494;29;44878;-96
2023/06/25 01:35:32;;;;;;;;;7.67;7.33;;;;;23.09;48.74;101488.13;4878862;23;44833;-96
2023/06/25 01:37:58;;;;;;;;;7.33;7.33;;;;;23.17;48.54;101504.34;4849689;29;45638;-96
2023/06/25 01:40:24;;;;;;;;;6.33;6.33;;;;;22.98;49.11;101478.38;4850836;29;45868;-96
2023/06/25 01:42:50;;;;;;;;;5.33;5.33;;;;;22.99;48.67;101471.25;4864845;29;44923;-96
2023/06/25 01:45:15;;;;;;;;;6.00;6.00;;;;;22.91;48.89;101470.03;4848209;29;44802;-96
2023/06/25 01:47:41;;;;;;;;;5.00;5.00;;;;;22.95;48.77;101484.75;4863966;29;45038;-96
2023/06/25 01:50:08;;;;;;;;;7.00;7.00;;;;;22.79;48.86;101463.03;4863469;29;45539;-96
2023/06/25 01:52:34;;;;;;;;;9.25;7.75;;;;;22.99;49.01;101488.00;4848655;29;44697;-96
2023/06/25 01:55:00;;;;;;;;;5.67;5.33;;;;;22.77;48.94;101457.00;4855389;29;44760;-96
2023/06/25 01:57:52;;;;;;;;;7.33;6.00;;;;;22.80;49.08;101462.06;4854886;29;44948;-96
2023/06/25 02:00:21;;;;;;;;;7.00;7.00;;;;;22.70;49.27;101456.63;4806469;29;45746;-96
2023/06/25 02:02:46;;;;;;;;;6.67;6.67;;;;;22.87;48.80;101486.31;4791411;29;44826;-96
2023/06/25 02:05:13;;;;;;;;;5.67;5.67;;;;;22.63;48.84;101450.09;4790135;29;44794;-96
2023/06/25 02:07:39;;;;;;;;;6.67;6.67;;;;;22.57;49.54;101443.44;4788017;29;44951;-96
2023/06/25 02:10:05;;;;;;;;;7.00;7.00;;;;;22.64;49.11;101452.63;4802119;29;45502;-96
2023/06/25 02:12:34;;;;;;;;;7.33;6.33;;;;;22.55;48.99;101440.91;4802212;29;44722;-96
2023/06/25 02:15:02;;;;;;;;;7.00;7.00;;;;;22.51;49.13;101441.22;4796833;29;44837;-96
2023/06/25 02:17:48;;;;;;;;;7.00;7.00;;;;;22.54;49.43;101449.81;4785727;29;44855;-96
2023/06/25 02:20:14;;;;;;;;;3.67;3.00;;;;;22.42;49.31;101430.38;4781558;29;45732;-96
2023/06/25 02:22:40;;;;;;;;;6.00;6.00;;;;;22.40;49.67;101434.09;4780007;29;44956;-95
2023/06/25 02:25:10;;;;;;;;;5.33;5.33;;;;;22.36;49.86;101433.47;4779374;29;44725;-96
2023/06/25 02:27:39;;;;;;;;;7.00;6.00;;;;;22.39;49.67;101441.19;4779707;29;44823;-96
2023/06/25 02:30:07;;;;;;;;;6.50;5.75;;;;;22.45;49.26;101453.13;4780646;29;47318;-96
2023/06/25 02:32:41;;;;;;;;;6.00;6.00;;;;;22.49;49.65;101459.91;4796096;29;44919;-96
2023/06/25 02:35:08;;;;;;;;;5.33;5.33;;;;;22.25;49.70;101420.16;4782674;29;44803;-96
2023/06/25 02:37:38;;;;;;;;;7.00;7.00;;;;;22.20;49.45;101411.72;4784111;29;44932;-96
2023/06/25 02:40:30;;;;;;;;;7.00;7.00;;;;;22.39;50.19;101449.16;4782688;29;45842;-95
2023/06/25 02:43:01;;;;;;;;;5.50;5.50;;;;;22.12;50.24;101407.00;4777841;29;44665;-97
2023/06/25 02:45:31;;;;;;;;;6.00;6.00;;;;;22.22;49.88;101428.38;4797623;29;44787;-96
2023/06/25 02:48:05;;;;;;;;;6.25;5.75;;;;;22.21;50.38;101432.81;4783640;29;45013;-96
2023/06/25 02:50:31;;;;;;;;;8.00;7.00;;;;;22.05;49.94;101405.75;4774959;29;45753;-96
2023/06/25 02:52:58;;;;;;;;;7.00;5.75;;;;;22.10;50.02;101422.16;4782466;29;44780;-96
2023/06/25 02:55:26;;;;;;;;;2.50;2.00;;;;;21.95;50.25;101398.50;4781936;29;44698;-96
2023/06/25 02:58:23;;;;;;;;;6.00;6.00;;;;;22.15;50.73;101442.09;4796299;29;44805;-96
2023/06/25 03:01:10;;;;;;;;;7.33;7.33;;;;;21.89;50.29;101401.59;4889903;29;45154;-96
2023/06/25 03:03:36;;;;;;;;;6.67;6.67;;;;;22.06;50.73;101434.81;4878045;29;44714;-96
2023/06/25 03:06:02;;;;;;;;;5.25;5.25;;;;;21.84;50.35;101399.28;4889241;29;44718;-96
2023/06/25 03:08:28;;;;;;;;;6.00;6.00;;;;;21.88;50.95;101418.44;4869345;29;44850;-95
2023/06/25 03:10:53;;;;;;;;;6.25;6.25;;;;;21.97;50.43;101435.47;4870072;29;45791;-96
2023/06/25 03:13:19;;;;;;;;;8.25;6.00;;;;;21.85;50.46;101422.19;4855402;29;44748;-96
2023/06/25 03:15:44;;;;;;;;;11.50;9.00;;;;;21.86;51.33;101429.16;4869454;29;44768;-96
2023/06/25 03:18:09;;;;;;;;;8.25;5.25;;;;;21.78;50.80;101425.38;4889028;29;44937;-96
2023/06/25 03:20:55;;;;;;;;;7.25;6.25;;;;;21.67;51.18;101412.91;4877559;29;45514;-96
2023/06/25 03:23:22;;;;;;;;;4.00;4.00;;;;;21.63;51.10;101404.34;4880571;29;44830;-96
2023/06/25 03:25:50;;;;;;;;;6.00;6.00;;;;;21.68;51.56;101419.88;4864273;29;44753;-96
2023/06/25 03:28:42;;;;;;;;;9.00;8.00;;;;;21.57;51.79;101418.03;4866245;29;45023;-96
2023/06/25 03:31:09;;;;;;;;;8.75;8.00;;;;;21.56;51.51;101406.56;4881663;29;45835;-96
2023/06/25 03:33:36;;;;;;;;;7.25;7.00;;;;;21.53;51.14;101408.59;4898063;29;44786;-96
2023/06/25 03:36:04;;;;;;;;;8.25;8.00;;;;;21.50;51.56;101404.38;4866718;29;44727;-96
2023/06/25 03:38:30;;;;;;;;;6.50;6.00;;;;;21.71;51.39;101432.94;4864039;29;44925;-96
2023/06/25 03:40:56;;;;;;;;;8.50;7.75;;;;;21.48;51.77;101401.00;4865370;29;45753;-96
2023/06/25 03:43:22;;;;;;;;;9.50;7.00;;;;;21.47;51.71;101391.34;4856841;29;45750;-96
2023/06/25 03:45:47;;;;;;;;;9.25;7.00;;;;;21.55;51.75;101406.69;4926527;23;46659;-96
2023/06/25 03:48:26;;;;;;;;;6.75;6.75;;;;;21.57;51.46;101412.72;4930818;23;45828;-96
2023/06/25 03:50:52;;;;;;;;;6.00;6.00;;;;;21.55;51.82;101409.31;4884345;29;45705;-96
2023/06/25 03:53:29;;;;;;;;;6.75;6.50;;;;;21.47;52.08;101401.94;4872306;29;44786;-96
2023/06/25 03:56:00;;;;;;;;;7.67;7.67;;;;;21.44;52.06;101408.28;4840048;29;44820;-96
2023/06/25 03:58:50;;;;;;;;;7.00;7.00;;;;;21.32;51.86;101386.22;4870619;29;44808;-96
2023/06/25 04:01:18;;;;;;;;;5.33;5.33;;;;;21.35;52.51;101393.91;4833392;29;45220;-96
2023/06/25 04:04:04;;;;;;;;;6.33;6.33;;;;;21.41;52.18;101411.19;4831583;29;44773;-96
2023/06/25 04:06:36;;;;;;;;;10.75;7.25;;;;;21.38;52.27;101398.16;4813631;29;44749;-96
2023/06/25 04:09:04;;;;;;;;;5.75;5.75;;;;;21.43;51.91;101413.72;4799010;29;44936;-96
2023/06/25 04:11:34;;;;;;;;;6.25;6.25;;;;;21.26;52.22;101391.94;4784657;29;45648;-95
2023/06/25 04:14:00;;;;;;;;;6.00;5.00;;;;;21.28;52.12;101394.50;4797552;29;44783;-96
2023/06/25 04:16:28;;;;;;;;;7.75;7.00;;;;;21.34;52.61;101404.63;4799283;29;44784;-96
2023/06/25 04:19:19;;;;;;;;;5.50;5.50;;;;;21.19;52.83;101388.88;4797692;29;44865;-96
2023/06/25 04:21:49;;;;;;;;;6.67;6.33;;;;;21.17;52.37;101389.94;4788595;29;45763;-96
2023/06/25 04:24:16;;;;;;;;;9.00;9.00;;;;;21.39;52.62;101430.78;4791120;29;44708;-96
2023/06/25 04:26:42;;;;;;;;;7.25;6.75;;;;;21.38;53.10;101429.09;4778484;29;44750;-96
2023/06/25 04:29:24;;;;;;;;;7.50;6.50;;;;;21.38;53.48;101427.28;4794337;29;45009;-96
2023/06/25 04:31:56;;;;;;;;;5.50;5.50;;;;;21.13;53.42;101384.03;4782839;29;45773;-95
2023/06/25 04:34:29;;;;;;;;;6.25;6.25;;;;;21.17;53.21;101390.81;4846349;29;44682;-96
2023/06/25 04:37:14;;;;;;;;;9.00;7.00;;;;;21.17;53.56;101393.44;4799794;29;44855;-96
2023/06/25 04:39:41;;;;;;;;;9.00;7.25;;;;;21.15;53.40;101386.56;4788077;29;44882;-95
2023/06/25 04:42:27;;;;;;;;;8.00;6.75;;;;;21.21;53.29;101389.63;4772285;29;45204;-96
2023/06/25 04:44:53;;;;;;;;;8.75;7.00;;;;;21.42;53.21;101431.41;4783446;29;44700;-96
2023/06/25 04:47:18;;;;;;;;;8.67;8.33;;;;;21.23;53.34;101398.31;4769573;29;44998;-96
2023/06/25 04:49:44;;;;;;;;;6.33;6.33;;;;;21.25;53.26;101403.50;4779269;29;46121;-95
2023/06/25 04:52:17;;;;;;;;;8.00;8.00;;;;;21.47;53.87;101431.91;4789329;29;45351;-96
2023/06/25 04:54:42;;;;;;;;;8.33;7.33;;;;;21.26;53.65;101391.94;4789686;29;44733;-96
2023/06/25 04:57:10;;;;;;;;;12.33;10.00;;;;;21.31;53.46;101405.72;4804572;29;44759;-94
2023/06/25 04:59:37;;;;;;;;;6.00;6.00;;;;;21.33;53.63;101405.56;4805774;29;44806;-95
2023/06/25 05:02:02;;;;;;;;;5.67;5.67;;;;;21.56;53.57;101437.53;4787221;29;45621;-96
2023/06/25 05:04:28;;;;;;;;;8.00;7.00;;;;;21.38;53.37;101413.19;4793298;29;44779;-96
2023/06/25 05:06:54;;;;;;;;;7.00;7.00;;;;;21.40;53.61;101411.28;4806707;29;44825;-96
2023/06/25 05:09:21;;;;;;;;;7.00;7.00;;;;;21.39;53.50;101399.88;4842417;29;45058;-95
2023/06/25 05:11:49;;;;;;;;;7.50;7.25;;;;;21.44;53.29;101399.53;4843816;29;45467;-95
2023/06/25 05:14:17;;;;;;;;;8.67;7.67;;;;;21.67;53.66;101434.09;4844966;29;44728;-96
2023/06/25 05:16:43;;;;;;;;;8.00;7.67;;;;;21.51;53.75;101407.88;4846675;29;44853;-96
2023/06/25 05:19:08;;;;;;;;;8.67;6.67;;;;;21.52;53.69;101397.16;4841080;29;45048;-94
2023/06/25 05:21:34;;;;;;;;;9.00;9.00;;;;;21.76;53.75;101434.28;4845886;29;45686;-96
2023/06/25 05:24:03;;;;;;;;;6.33;6.33;;;;;21.58;53.86;101404.66;4854831;29;44800;-95
2023/06/25 05:26:29;;;;;;;;;6.33;6.00;;;;;21.82;53.95;101440.97;4857240;29;44678;-95
2023/06/25 05:28:56;;;;;;;;;7.67;7.00;;;;;21.63;53.43;101407.81;4844365;29;45001;-95
2023/06/25 05:31:22;;;;;;;;;8.67;8.00;;;;;21.66;53.57;101405.91;4826332;29;46748;-96
2023/06/25 05:33:47;;;;;;;;;9.00;7.67;;;;;21.91;53.79;101447.38;4845673;29;44729;-95
2023/06/25 05:36:14;;;;;;;;;6.00;4.67;;;;;21.79;53.31;101421.81;4858640;29;44781;-96
2023/06/25 05:38:39;;;;;;;;;6.33;5.33;;;;;21.77;53.13;101408.66;4871862;29;44873;-95
2023/06/25 05:41:05;;;;;;;;;6.33;6.33;;;;;21.85;53.63;101411.56;4854187;29;45793;-96
2023/06/25 05:43:31;;;;;;;;;9.67;8.67;;;;;21.85;53.34;101414.22;4873949;29;44776;-96
2023/06/25 05:45:56;;;;;;;;;10.75;9.50;;;;;21.96;53.86;101432.00;4850577;29;44789;-95
2023/06/25 05:48:23;;;;;;;;;9.33;9.00;;;;;21.92;53.63;101411.13;4863079;29;44850;-96
2023/06/25 05:50:48;;;;;;;;;8.75;6.75;;;;;21.94;53.11;101412.69;4855585;29;45211;-95
2023/06/25 05:53:14;;;;;;;;;10.33;8.00;;;;;22.09;52.87;101425.78;4870016;29;44696;-95
2023/06/25 05:55:41;;;;;;;;;7.67;7.67;;;;;22.06;53.11;101410.94;4841502;29;44651;-96
2023/06/25 06:00:43;;;;;;;;;10.33;8.67;;;;;22.15;53.28;101415.56;5040144;23;46504;-96
2023/06/25 06:03:08;;;;;;;;;8.00;8.00;;;;;22.35;52.83;101439.72;4865846;29;44857;-96
2023/06/25 06:05:33;;;;;;;;;7.00;7.00;;;;;22.27;52.87;101427.03;4854833;29;44901;-96
2023/06/25 06:07:59;;;;;;;;;8.00;7.33;;;;;22.37;52.38;101431.66;4840501;29;44897;-96
2023/06/25 06:10:24;;;;;;;;;6.67;6.33;;;;;22.47;52.13;101431.81;4836402;29;46888;-95
2023/06/25 06:12:57;;;;;;;;;11.67;9.00;;;;;22.52;51.51;101434.97;4837578;29;44832;-96
2023/06/25 06:15:23;;;;;;;;;7.00;7.00;;;;;22.37;51.63;101413.97;4820206;29;44705;-96
2023/06/25 06:17:48;;;;;;;;;8.33;8.33;;;;;22.38;51.83;101393.59;4840250;29;44847;-95
2023/06/25 06:20:14;;;;;;;;;9.67;9.67;;;;;22.45;51.76;101405.41;4853066;29;45451;-96
2023/06/25 06:22:41;;;;;;;;;7.33;7.33;;;;;22.69;51.78;101437.19;4852329;29;44717;-96
2023/06/25 06:25:07;;;;;;;;;8.00;7.00;;;;;22.74;51.73;101436.00;4851189;29;44714;-96
2023/06/25 06:27:32;;;;;;;;;7.33;6.33;;;;;22.60;50.84;101406.09;4846309;29;45409;-95
2023/06/25 06:29:58;;;;;;;;;9.67;9.00;;;;;22.69;50.96;101415.97;4852153;29;47079;-96
2023/06/25 06:32:23;;;;;;;;;9.00;8.00;;;;;22.70;50.26;101408.88;4845140;29;44753;-96
2023/06/25 06:34:49;;;;;;;;;10.67;9.00;;;;;22.83;50.99;101425.50;4854560;29;44800;-96
2023/06/25 06:37:16;;;;;;;;;8.67;8.33;;;;;22.70;50.62;101395.59;4862389;29;44908;-96
2023/06/25 06:39:42;;;;;;;;;8.33;8.00;;;;;22.74;50.58;101391.75;4855229;29;45484;-95
2023/06/25 06:42:07;;;;;;;;;9.33;9.33;;;;;22.88;50.41;101397.78;4851667;29;44893;-93
2023/06/25 06:44:46;;;;;;;;;4.67;4.67;;;;;22.92;50.74;101401.91;4834692;29;45355;-94
2023/06/25 06:47:12;;;;;;;;;8.00;6.00;;;;;23.03;50.53;101409.00;4855604;29;45300;-95
2023/06/25 06:49:38;;;;;;;;;8.00;8.00;;;;;22.96;50.30;101396.22;4844971;29;45623;-95
2023/06/25 06:52:04;;;;;;;;;8.33;8.33;;;;;23.20;50.11;101419.13;4852166;29;44789;-95
2023/06/25 06:54:30;;;;;;;;;9.33;8.33;;;;;23.23;49.90;101416.25;4847852;29;45019;-96
2023/06/25 06:56:55;;;;;;;;;11.00;11.00;;;;;23.18;49.71;101399.81;4855963;29;45319;-95
2023/06/25 06:59:20;;;;;;;;;9.67;9.33;;;;;23.23;49.52;101400.31;4832988;29;47057;-96
2023/06/25 07:01:46;;;;;;;;;8.33;8.33;;;;;23.28;49.17;101404.41;4849982;29;44904;-95
2023/06/25 07:04:12;;;;;;;;;6.00;4.67;;;;;23.25;49.41;101386.06;4845152;29;45059;-96
2023/06/25 07:06:37;;;;;;;;;10.33;7.33;;;;;23.35;49.70;101395.88;4848618;29;45319;-96
2023/06/25 07:09:02;;;;;;;;;7.33;7.33;;;;;23.41;49.49;101391.84;4844205;29;47001;-94
2023/06/25 07:11:28;;;;;;;;;8.33;8.33;;;;;23.47;49.45;101386.03;4836734;29;44726;-96
2023/06/25 07:13:55;;;;;;;;;8.33;8.00;;;;;23.54;49.32;101380.22;4848683;29;44701;-96
2023/06/25 07:16:20;;;;;;;;;7.33;7.33;;;;;23.61;49.28;101387.59;4859030;29;45244;-96
2023/06/25 07:18:46;;;;;;;;;9.00;9.00;;;;;23.68;49.35;101381.75;4839094;29;46862;-95
2023/06/25 07:21:12;;;;;;;;;9.00;8.00;;;;;23.71;48.73;101374.41;4857208;29;44802;-96
2023/06/25 07:23:37;;;;;;;;;7.00;6.33;;;;;23.80;48.58;101382.59;4852966;29;44762;-96
2023/06/25 07:26:04;;;;;;;;;9.33;8.67;;;;;23.95;48.38;101402.56;4837334;29;44810;-96
2023/06/25 07:28:29;;;;;;;;;12.00;10.00;;;;;23.88;48.12;101375.66;4841536;29;45551;-94
2023/06/25 07:30:55;;;;;;;;;9.00;9.00;;;;;24.06;48.14;101398.19;4851432;29;44759;-96
2023/06/25 07:33:20;;;;;;;;;10.33;9.67;;;;;24.14;47.64;101393.94;4833846;29;44749;-94
2023/06/25 07:35:46;;;;;;;;;9.00;9.00;;;;;24.05;48.00;101372.56;4840124;29;44938;-96
2023/06/25 07:38:11;;;;;;;;;11.00;11.00;;;;;24.11;47.89;101369.44;4848062;29;47014;-96
2023/06/25 07:40:37;;;;;;;;;10.75;9.75;;;;;24.19;47.47;101374.09;4860727;29;44834;-96
2023/06/25 07:53:21;;;;;;;;;10.00;10.00;;;;;24.57;47.22;101380.63;5911675;23;46090;-96
2023/06/25 08:00:58;;;;;;;;;12.50;12.50;;;;;24.97;46.47;101399.44;4878230;29;44629;-96
2023/06/25 08:04:41;;;;;;;;;10.00;9.00;;;;;24.99;46.42;101387.69;4881499;29;44650;-95
2023/06/25 08:10:19;;;;;;;;;9.33;8.33;;;;;25.19;46.43;101369.13;4928782;23;46535;-91
2023/06/25 08:12:58;;;;;;;;;11.33;10.67;;;;;25.22;46.07;101364.38;4855591;29;44746;-95
2023/06/25 08:15:48;;;;;;;;;12.00;10.33;;;;;25.44;45.86;101367.78;4862703;29;44835;-96
2023/06/25 08:18:16;;;;;;;;;9.00;8.00;;;;;25.65;45.93;101385.50;4841728;29;44854;-96
2023/06/25 08:30:56;;;;;;;;;11.00;10.67;;;;;26.09;44.21;101370.88;4873592;29;45766;-95
2023/06/25 08:33:22;;;;;;;;;7.67;7.67;;;;;26.24;43.86;101382.00;4850965;29;45569;-95
2023/06/25 08:35:57;;;;;;;;;10.33;10.33;;;;;26.32;43.75;101384.78;4860337;29;45652;-94
2023/06/25 08:38:24;;;;;;;;;10.33;10.33;;;;;26.35;44.65;101372.97;4882280;29;45398;-94
2023/06/25 08:40:53;;;;;;;;;11.33;10.67;;;;;26.45;44.02;101363.13;4879640;29;47178;-94
2023/06/25 08:43:19;;;;;;;;;10.33;9.33;;;;;26.51;44.37;101367.88;4872688;29;45325;-94
2023/06/25 08:45:46;;;;;;;;;12.00;12.00;;;;;26.65;43.86;101366.56;4865133;29;45329;-95
2023/06/25 08:48:13;;;;;;;;;11.00;11.00;;;;;26.77;43.73;101374.41;4877706;29;45374;-95
2023/06/25 08:50:41;;;;;;;;;10.00;9.33;;;;;26.87;43.08;101364.53;4878697;29;45725;-95
2023/06/25 08:53:07;;;;;;;;;9.67;9.67;;;;;26.96;43.28;101362.81;4875833;29;45873;-95
2023/06/25 08:55:34;;;;;;;;;11.33;11.33;;;;;27.08;43.07;101361.63;4900273;29;45339;-94
2023/06/25 08:58:00;;;;;;;;;14.00;11.00;;;;;27.19;43.26;101362.41;4847561;29;45007;-94
2023/06/25 09:00:25;;;;;;;;;9.67;8.67;;;;;27.34;43.13;101360.06;4864745;29;45781;-94
2023/06/25 09:02:51;;;;;;;;;9.33;9.33;;;;;27.42;43.20;101348.63;4862621;29;45386;-95
2023/06/25 09:05:25;;;;;;;;;8.33;8.33;;;;;27.47;42.33;101343.66;4878842;29;45396;-95
2023/06/25 09:07:50;;;;;;;;;9.67;9.00;;;;;27.57;42.35;101347.09;4880353;29;45504;-95
2023/06/25 09:10:16;;;;;;;;;12.67;9.00;;;;;27.73;41.45;101357.13;4891473;29;47136;-95
2023/06/25 09:12:45;;;;;;;;;12.00;11.00;;;;;27.81;41.96;101347.50;4889132;29;45463;-96
2023/06/25 09:15:11;;;;;;;;;12.00;11.00;;;;;27.94;41.43;101355.94;4865653;29;45642;-96
2023/06/25 09:17:37;;;;;;;;;11.33;11.33;;;;;28.03;41.24;101356.03;4846834;29;45507;-94
2023/06/25 09:20:06;;;;;;;;;6.33;6.33;;;;;28.08;41.26;101346.53;4870056;29;47323;-95
2023/06/25 09:22:32;;;;;;;;;9.67;9.67;;;;;28.20;40.42;101346.25;4871326;29;45388;-96
2023/06/25 09:24:59;;;;;;;;;10.00;9.67;;;;;28.22;40.04;101337.09;4880765;29;45533;-96
2023/06/25 09:27:24;;;;;;;;;10.67;10.33;;;;;28.38;39.73;101339.03;4877173;29;45368;-94
2023/06/25 09:29:50;;;;;;;;;7.67;7.67;;;;;28.42;39.91;101334.22;4846842;29;45484;-95
2023/06/25 09:32:16;;;;;;;;;9.50;9.50;;;;;28.54;39.01;101332.09;4877918;29;45234;-94
2023/06/25 09:34:45;;;;;;;;;11.75;11.00;;;;;28.74;39.50;101345.25;4880194;29;45289;-95
2023/06/25 09:37:10;;;;;;;;;12.00;9.00;;;;;28.86;39.18;101329.72;4884528;29;45260;-95
2023/06/25 09:39:36;;;;;;;;;10.00;10.00;;;;;28.93;39.23;101328.94;4880235;29;46501;-92
2023/06/25 09:42:02;;;;;;;;;12.00;11.00;;;;;29.02;38.67;101321.75;4874693;29;45474;-94
2023/06/25 09:44:28;;;;;;;;;8.67;8.67;;;;;29.13;37.97;101326.00;4865289;29;45562;-95
2023/06/25 09:47:03;;;;;;;;;9.33;9.00;;;;;29.27;37.79;101329.00;4862111;29;45388;-96
2023/06/25 09:49:31;;;;;;;;;8.00;8.00;;;;;29.39;38.10;101324.19;4886563;29;45759;-95
2023/06/25 09:52:15;;;;;;;;;12.50;10.75;;;;;29.47;38.34;101314.31;4867291;29;45517;-95
2023/06/25 09:54:42;;;;;;;;;9.25;9.25;;;;;29.68;37.65;101322.88;4866288;29;45263;-94
2023/06/25 09:57:16;;;;;;;;;10.00;10.00;;;;;29.74;36.66;101309.66;4854660;29;45605;-95
2023/06/25 09:59:42;;;;;;;;;8.33;8.33;;;;;29.90;36.88;101317.84;4878032;29;45625;-94
2023/06/25 10:02:07;;;;;;;;;9.67;9.67;;;;;29.97;36.38;101300.03;4866410;29;45269;-94
2023/06/25 10:04:34;;;;;;;;;10.00;10.00;;;;;30.24;36.41;101316.78;4883055;29;45399;-96
2023/06/25 10:07:02;;;;;;;;;11.75;11.50;;;;;30.33;35.73;101301.50;4848717;29;45419;-95
2023/06/25 10:09:32;;;;;;;;;9.25;9.25;;;;;30.50;35.39;101313.84;4882509;29;47375;-93
2023/06/25 10:11:58;;;;;;;;;12.00;9.00;;;;;30.67;34.79;101311.09;4861742;29;45495;-95
2023/06/25 10:14:23;;;;;;;;;13.75;12.75;;;;;30.75;34.28;101292.28;4876342;29;45373;-96
2023/06/25 10:16:54;;;;;;;;;12.25;11.50;;;;;30.88;34.67;101288.19;4864885;29;45326;-93
2023/06/25 10:19:27;;;;;;;;;10.00;10.00;;;;;31.02;33.71;101292.81;4849956;29;45845;-93
2023/06/25 10:22:00;;;;;;;;;10.25;10.25;;;;;31.14;33.79;101287.84;4879374;29;45556;-95
2023/06/25 10:24:25;;;;;;;;;8.33;8.33;;;;;31.26;33.86;101287.41;4878120;29;45330;-95
2023/06/25 10:26:53;;;;;;;;;9.33;9.33;;;;;31.44;33.87;101284.47;4857028;29;45614;-95
2023/06/25 10:29:19;;;;;;;;;9.00;9.00;;;;;31.59;34.17;101281.81;4848191;29;46249;-95
2023/06/25 10:31:47;;;;;;;;;9.67;9.67;;;;;31.72;33.46;101270.44;4895386;29;45469;-95
2023/06/25 10:34:13;;;;;;;;;12.00;11.00;;;;;31.95;33.18;101275.78;4896180;29;45462;-92
2023/06/25 10:36:51;;;;;;;;;9.00;9.00;;;;;32.11;32.86;101280.13;4866035;28;45641;-94
2023/06/25 10:39:17;;;;;;;;;9.00;9.00;;;;;32.24;32.87;101270.56;4876169;29;45809;-95
2023/06/25 10:41:46;;;;;;;;;9.25;9.25;;;;;32.48;32.23;101284.78;4865370;29;45424;-94
2023/06/25 10:44:12;;;;;;;;;8.75;8.75;;;;;32.52;32.18;101272.59;4874098;29;45549;-95
2023/06/25 10:46:37;;;;;;;;;11.67;11.33;;;;;32.71;31.99;101283.81;4866518;29;45312;-96
2023/06/25 10:49:02;;;;;;;;;16.00;15.00;;;;;32.81;31.36;101278.91;4884627;28;47286;-95
2023/06/25 10:51:28;;;;;;;;;11.67;11.67;;;;;32.90;31.73;101274.28;4859687;28;46311;-93
2023/06/25 11:31:13;;;;;;;;;11.00;10.50;;;;;34.63;28.00;101250.59;4895557;28;45349;-90
2023/06/25 11:33:39;;;;;;;;;10.25;10.25;;;;;34.74;28.13;101248.31;4893790;28;45550;-90
2023/06/25 11:36:05;;;;;;;;;10.00;10.00;;;;;34.86;28.38;101246.69;4897480;28;46700;-92
2023/06/25 11:42:11;;;;;;;;;10.00;9.75;;;;;34.91;27.28;101244.22;4899171;28;45889;-91
2023/06/25 11:44:37;;;;;;;;;11.75;10.75;;;;;34.92;27.07;101239.63;4901290;29;45548;-90
2023/06/25 11:47:02;;;;;;;;;11.75;11.75;;;;;34.96;26.87;101240.88;4883882;29;45939;-90
2023/06/25 11:49:27;;;;;;;;;10.50;10.50;;;;;35.00;26.93;101236.72;4884163;29;45569;-91
2023/06/25 11:51:53;;;;;;;;;15.75;15.75;;;;;35.05;27.29;101236.94;4900630;28;45591;-91
2023/06/25 12:04:32;;;;;;;;;12.75;12.25;;;;;35.33;26.45;101224.25;4899503;28;45373;-91
2023/06/25 12:06:57;;;;;;;;;9.25;9.25;;;;;35.47;26.36;101218.81;4899655;29;45466;-91
2023/06/25 12:09:22;;;;;;;;;8.67;8.67;;;;;35.54;26.28;101220.47;4889915;29;45469;-91
2023/06/25 12:22:02;;;;;;;;;10.00;9.67;;;;;35.84;26.48;101216.50;4886297;29;45335;-91
2023/06/25 12:24:27;;;;;;;;;9.67;9.33;;;;;35.94;25.90;101218.75;4882269;28;45402;-90
2023/06/25 12:26:54;;;;;;;;;9.25;9.25;;;;;35.98;25.29;101218.13;4861635;29;46651;-90
2023/06/25 12:29:20;;;;;;;;;10.67;10.67;;;;;36.00;25.15;101209.75;4892718;28;45634;-90
2023/06/25 12:31:45;;;;;;;;;9.75;9.25;;;;;36.01;25.71;101213.31;4888986;28;45462;-90
2023/06/25 12:34:10;;;;;;;;;10.50;9.00;;;;;36.06;25.54;101210.78;4880257;29;45556;-90
2023/06/25 12:36:36;;;;;;;;;10.75;10.75;;;;;36.08;25.58;101211.41;4881463;28;47867;-91
2023/06/25 12:39:01;;;;;;;;;10.25;10.25;;;;;36.15;25.17;101206.84;4867062;29;45609;-91
2023/06/25 12:41:27;;;;;;;;;51.50;42.75;;;;;36.23;25.36;101203.88;4861652;29;45651;-90
2023/06/25 12:43:52;;;;;;;;;13.75;12.75;;;;;36.31;25.04;101212.78;4867496;29;45605;-91
2023/06/25 12:46:19;;;;;;;;;11.00;11.00;;;;;36.32;24.99;101204.44;4876695;29;45663;-90
2023/06/25 12:59:08;;;;;;;;;9.33;9.33;;;;;36.27;24.03;101192.59;4867927;29;45331;-92
2023/06/25 13:01:33;;;;;;;;;12.00;11.00;;;;;36.19;25.17;101186.38;4861429;29;45337;-91
2023/06/25 13:03:59;;;;;;;;;13.00;12.67;;;;;36.16;25.16;101186.81;4885737;29;45391;-90
2023/06/25 13:06:24;;;;;;;;;10.25;10.25;;;;;36.18;25.34;101184.72;4881321;29;45556;-91
2023/06/25 13:08:49;;;;;;;;;10.33;10.00;;;;;36.26;24.90;101185.50;4878181;29;46731;-90
2023/06/25 13:11:15;;;;;;;;;12.50;12.50;;;;;36.26;25.33;101180.94;4862742;29;45314;-92
2023/06/25 13:13:40;;;;;;;;;8.33;8.33;;;;;36.30;25.08;101171.34;4872356;29;45048;-91
2023/06/25 13:16:05;;;;;;;;;10.67;10.67;;;;;36.46;24.95;101188.94;4894577;29;45333;-90
2023/06/25 13:25:14;;;;;;;;;8.00;8.00;;;;;36.65;24.80;101175.53;4881095;29;45409;-92